Date,TemperatureHighF,TemperatureAvgF,TemperatureLowF,DewpointHighF,DewpointAvgF,DewpointLowF,HumidityHigh,HumidityAvg,HumidityLow,PressureMaxIn,PressureMinIn,WindSpeedMaxMPH,WindSpeedAvgMPH,GustSpeedMaxMPH,PrecipitationSumIn
2013-3-1,29.6,25.8,20.5,25.1,20.0,15.3,83,78,71,30.15,30.00,12,3,12,0.01
2013-3-2,28.4,20.0,13.9,18.6,14.6,10.6,88,79,64,30.16,30.09,12,2,13,0.00
2013-3-3,34.2,23.5,12.3,18.4,15.4,9.6,91,72,48,30.11,30.01,13,1,14,0.00
2013-3-4,34.0,20.6,5.6,19.0,13.3,3.3,92,75,46,30.18,30.08,11,0,11,0.00
2013-3-5,33.2,25.1,18.8,24.9,20.2,13.6,92,81,68,30.13,29.86,19,4,23,0.00
2013-3-6,41.4,33.6,26.5,31.4,28.6,24.5,93,82,65,30.21,29.95,16,3,16,0.00
2013-3-7,38.6,31.7,22.5,30.0,24.5,18.3,94,75,53,30.40,30.20,12,1,12,0.00
2013-3-8,41.2,27.7,14.3,25.3,20.5,12.6,95,76,50,30.51,30.38,9,1,9,0.00
2013-3-9,40.9,33.6,22.1,34.7,27.5,19.8,92,79,61,30.38,29.95,14,2,14,0.00
2013-3-10,47.8,43.2,37.4,44.7,40.2,33.6,97,89,72,29.95,29.68,9,1,11,0.26
2013-3-11,48.6,43.0,33.9,47.7,41.6,33.1,100,95,81,29.68,29.43,18,3,21,0.05
2013-3-12,33.9,31.3,28.1,33.1,28.4,25.2,97,89,78,29.87,29.62,12,1,12,0.06
2013-3-13,33.0,26.9,21.7,25.2,19.5,14.1,92,75,56,30.23,29.87,15,2,16,0.01
2013-3-14,41.9,29.2,15.8,27.4,20.1,13.9,96,70,44,30.27,30.06,13,1,13,0.00
2013-3-15,38.8,34.8,30.0,34.7,31.8,25.4,95,89,78,30.06,29.83,9,1,11,0.02
2013-3-16,35.8,28.4,23.5,28.6,24.1,18.1,97,85,63,30.06,29.76,14,3,15,0.13
2013-3-17,29.6,25.5,21.8,21.3,16.7,13.3,85,70,54,30.27,30.06,14,2,14,0.01
2013-3-18,32.8,26.6,19.6,31.8,23.6,15.3,97,88,78,30.15,29.56,18,3,19,0.00
2013-3-19,32.5,23.7,19.8,31.5,20.3,14.8,96,87,68,29.94,29.59,14,2,21,0.00
2013-3-20,25.5,20.6,11.8,18.6,14.5,9.5,92,77,67,29.97,29.91,13,1,15,0.06
2013-3-21,32.1,23.8,14.0,26.5,19.7,12.0,94,85,74,29.98,29.90,13,1,13,0.06
2013-3-22,39.2,30.3,23.9,28.1,22.9,19.8,89,74,59,30.04,29.96,11,1,12,0.10
2013-3-23,37.1,29.7,21.0,27.0,23.9,19.3,95,80,62,30.13,30.03,9,1,9,0.00
2013-3-24,36.4,29.5,22.3,28.1,24.3,19.6,95,81,61,30.05,29.71,21,4,23,0.00
2013-3-25,38.7,33.5,29.8,30.5,27.0,23.9,84,77,64,29.97,29.65,18,6,20,0.00
2013-3-26,44.6,35.1,28.5,33.4,29.9,26.0,92,82,59,30.15,29.97,13,1,16,0.01
2013-3-27,48.0,36.8,28.6,31.1,27.1,22.9,95,71,43,30.23,30.15,12,1,13,0.00
2013-3-28,51.4,37.8,27.2,30.2,26.0,21.9,94,66,37,30.28,30.22,10,1,10,0.00
2013-3-29,54.1,36.9,22.5,33.7,25.4,21.0,96,68,35,30.28,30.20,9,0,10,0.00
2013-3-30,55.2,39.1,22.2,35.0,27.0,21.0,97,67,33,30.21,29.85,16,2,17,0.00
2013-3-31,46.9,42.5,34.9,42.4,37.7,29.7,97,83,63,29.85,29.63,12,2,16,0.09